Time;durP1;ratioP1;P1;durP2;ratioP2;P2;SDS_P1;SDS_P2;PMS_P1;PMS_P2;Temp;Humidity;BMP_temperature;BMP_pressure;BME280_temperature;BME280_humidity;BME280_pressure;Samples;Min_cycle;Max_cycle;Signal;HPM_P1;HPM_P2
2021/07/10 00:01:15;;;;;;;7.75;4.20;;;;;;;;;;6226480;22;20166;-89
2021/07/10 00:04:21;;;;;;;4.95;3.70;;;;;;;;;;6225997;22;20191;-90
2021/07/10 00:07:26;;;;;;;9.35;4.43;;;;;;;;;;6225062;23;20270;-89
2021/07/10 00:10:31;;;;;;;9.98;5.05;;;;;;;;;;6227712;22;20166;-89
2021/07/10 00:13:36;;;;;;;8.18;5.45;;;;;;;;;;6225830;22;20259;-89
2021/07/10 00:16:41;;;;;;;13.23;5.05;;;;;;;;;;6225564;22;20166;-90
2021/07/10 00:19:52;;;;;;;9.25;5.13;;;;;;;;;;6226233;22;20167;-91
2021/07/10 00:22:57;;;;;;;10.80;5.30;;;;;;;;;;6224106;22;20194;-90
2021/07/10 00:26:03;;;;;;;9.65;5.60;;;;;;;;;;6225738;23;20151;-89
2021/07/10 00:29:07;;;;;;;9.20;5.65;;;;;;;;;;6224267;22;20167;-89
2021/07/10 00:32:12;;;;;;;11.70;6.00;;;;;;;;;;6225723;22;20246;-91
2021/07/10 00:35:19;;;;;;;11.65;5.82;;;;;;;;;;6226734;22;20174;-90
2021/07/10 00:38:23;;;;;;;16.20;6.53;;;;;;;;;;6228008;22;20171;-89
2021/07/10 00:41:28;;;;;;;15.70;6.45;;;;;;;;;;6227607;22;20163;-91
2021/07/10 00:44:34;;;;;;;14.32;6.50;;;;;;;;;;6226824;22;20198;-89
2021/07/10 00:47:39;;;;;;;20.83;7.75;;;;;;;;;;6227162;22;20163;-91
2021/07/10 00:50:46;;;;;;;17.27;8.70;;;;;;;;;;6227164;22;20286;-90
2021/07/10 00:53:52;;;;;;;21.17;7.90;;;;;;;;;;6227583;23;20218;-91
2021/07/10 00:56:58;;;;;;;16.42;7.78;;;;;;;;;;6225976;23;20182;-89
2021/07/10 01:00:03;;;;;;;23.15;8.18;;;;;;;;;;6244791;22;20175;-89
2021/07/10 01:03:09;;;;;;;17.05;7.57;;;;;;;;;;6226912;22;20171;-89
2021/07/10 01:06:16;;;;;;;15.30;7.00;;;;;;;;;;6229442;22;20190;-89
2021/07/10 01:09:23;;;;;;;13.50;7.85;;;;;;;;;;6228531;22;20162;-89
2021/07/10 01:12:28;;;;;;;14.05;7.43;;;;;;;;;;6227711;22;20171;-89
2021/07/10 01:15:33;;;;;;;13.65;7.47;;;;;;;;;;6228824;22;20154;-89
2021/07/10 01:18:38;;;;;;;13.95;7.20;;;;;;;;;;6228454;22;20206;-90
2021/07/10 01:21:45;;;;;;;22.20;7.00;;;;;;;;;;6229009;22;20171;-89
2021/07/10 01:24:50;;;;;;;9.80;6.55;;;;;;;;;;6229093;22;20194;-89
2021/07/10 01:27:55;;;;;;;11.88;6.32;;;;;;;;;;6228532;22;20219;-90
2021/07/10 01:31:00;;;;;;;20.95;6.75;;;;;;;;;;6228824;22;20162;-90
2021/07/10 01:34:05;;;;;;;53.80;9.27;;;;;;;;;;6245838;22;20618;-89
2021/07/10 01:37:11;;;;;;;25.02;7.45;;;;;;;;;;6227531;22;20170;-90
2021/07/10 01:40:18;;;;;;;78.80;9.07;;;;;;;;;;6226549;23;20168;-89
2021/07/10 01:43:23;;;;;;;24.00;8.52;;;;;;;;;;6228765;22;20615;-89
2021/07/10 01:46:28;;;;;;;14.73;7.75;;;;;;;;;;6227511;23;20183;-89
2021/07/10 01:49:33;;;;;;;25.60;8.65;;;;;;;;;;6228123;23;20151;-90
2021/07/10 01:52:40;;;;;;;16.92;7.63;;;;;;;;;;6226542;22;20198;-91
2021/07/10 01:55:45;;;;;;;27.83;8.80;;;;;;;;;;6228720;23;20230;-89
2021/07/10 01:58:51;;;;;;;14.63;8.48;;;;;;;;;;6228066;23;20254;-90
2021/07/10 02:01:56;;;;;;;28.75;9.70;;;;;;;;;;6227164;23;20162;-90
2021/07/10 02:05:01;;;;;;;15.48;8.80;;;;;;;;;;6227443;23;20250;-90
2021/07/10 02:08:09;;;;;;;15.98;8.82;;;;;;;;;;6227266;22;20191;-90
2021/07/10 02:11:14;;;;;;;29.73;9.05;;;;;;;;;;6228042;22;20180;-89
2021/07/10 02:14:20;;;;;;;26.60;9.32;;;;;;;;;;6227618;23;20183;-91
2021/07/10 02:17:26;;;;;;;16.80;8.52;;;;;;;;;;6229358;22;20175;-90
2021/07/10 02:20:32;;;;;;;19.33;8.75;;;;;;;;;;6226286;22;20520;-87
2021/07/10 02:23:38;;;;;;;20.33;8.75;;;;;;;;;;6224860;23;20167;-90
2021/07/10 02:26:44;;;;;;;21.13;7.45;;;;;;;;;;6226855;22;20170;-90
2021/07/10 02:29:48;;;;;;;20.98;7.75;;;;;;;;;;6225033;22;20186;-90
2021/07/10 02:32:54;;;;;;;15.63;7.78;;;;;;;;;;6226086;22;20495;-90
2021/07/10 02:35:59;;;;;;;104.13;8.52;;;;;;;;;;6222606;23;20261;-90
2021/07/10 02:39:06;;;;;;;14.95;7.60;;;;;;;;;;6224964;22;20150;-90
2021/07/10 02:42:11;;;;;;;24.25;7.53;;;;;;;;;;6224843;23;20167;-90
2021/07/10 02:45:16;;;;;;;13.73;7.88;;;;;;;;;;6226547;23;20306;-91
2021/07/10 02:48:21;;;;;;;12.52;7.32;;;;;;;;;;6224344;23;20159;-90
2021/07/10 02:51:26;;;;;;;9.05;6.70;;;;;;;;;;6225613;23;20561;-91
2021/07/10 02:54:33;;;;;;;12.40;6.13;;;;;;;;;;6225870;23;20214;-91
2021/07/10 02:57:39;;;;;;;10.35;6.80;;;;;;;;;;6225686;23;20275;-91
2021/07/10 03:00:43;;;;;;;9.10;6.40;;;;;;;;;;6225660;23;20241;-90
2021/07/10 03:03:49;;;;;;;9.07;5.80;;;;;;;;;;6226027;22;20237;-91
2021/07/10 03:06:54;;;;;;;7.70;5.30;;;;;;;;;;6225133;22;20167;-90
2021/07/10 03:10:00;;;;;;;11.77;5.90;;;;;;;;;;6225230;22;20619;-90
2021/07/10 03:13:05;;;;;;;7.35;5.20;;;;;;;;;;6224271;22;20246;-89
2021/07/10 03:16:10;;;;;;;10.45;5.60;;;;;;;;;;6225586;23;20235;-90
2021/07/10 03:19:15;;;;;;;10.30;4.95;;;;;;;;;;6225969;23;20210;-91
2021/07/10 03:22:19;;;;;;;8.10;4.53;;;;;;;;;;6226747;23;20614;-90
2021/07/10 03:25:26;;;;;;;5.53;4.38;;;;;;;;;;6224897;23;20238;-90
2021/07/10 03:28:31;;;;;;;7.55;5.20;;;;;;;;;;6226210;23;20190;-90
2021/07/10 03:31:35;;;;;;;6.97;5.13;;;;;;;;;;6225600;22;20154;-91
2021/07/10 03:34:40;;;;;;;7.80;4.82;;;;;;;;;;6226140;23;20190;-90
2021/07/10 03:37:45;;;;;;;7.55;4.07;;;;;;;;;;6225899;22;20610;-90
2021/07/10 03:40:52;;;;;;;5.18;3.92;;;;;;;;;;6225956;23;20178;-91
2021/07/10 03:43:57;;;;;;;11.07;4.20;;;;;;;;;;6225715;23;20167;-89
2021/07/10 03:47:02;;;;;;;9.18;4.88;;;;;;;;;;6225414;23;20619;-90
2021/07/10 03:50:07;;;;;;;6.60;4.68;;;;;;;;;;6226397;22;20170;-90
2021/07/10 03:53:13;;;;;;;7.60;4.50;;;;;;;;;;6226300;23;20166;-90
2021/07/10 03:56:20;;;;;;;8.45;4.82;;;;;;;;;;6226813;22;20171;-91
2021/07/10 03:59:25;;;;;;;8.38;4.85;;;;;;;;;;6225871;23;20162;-90
2021/07/10 04:02:31;;;;;;;8.32;4.90;;;;;;;;;;6225090;23;20151;-90
2021/07/10 04:05:37;;;;;;;9.73;6.53;;;;;;;;;;6225861;23;20299;-91
2021/07/10 04:08:42;;;;;;;11.10;6.07;;;;;;;;;;6225898;23;20190;-91
2021/07/10 04:11:48;;;;;;;12.93;7.45;;;;;;;;;;6226196;22;20175;-90
2021/07/10 04:14:54;;;;;;;11.13;7.10;;;;;;;;;;6225766;22;20167;-90
2021/07/10 04:17:59;;;;;;;10.32;6.78;;;;;;;;;;6226936;22;20224;-90
2021/07/10 04:21:04;;;;;;;13.77;7.07;;;;;;;;;;6227583;22;20167;-90
2021/07/10 04:24:09;;;;;;;19.20;6.85;;;;;;;;;;6227205;22;20171;-90
2021/07/10 04:27:15;;;;;;;10.45;7.10;;;;;;;;;;6226934;22;20171;-90
2021/07/10 04:30:20;;;;;;;11.60;6.97;;;;;;;;;;6226292;23;20219;-90
2021/07/10 04:33:26;;;;;;;12.00;7.43;;;;;;;;;;6223737;23;20497;-89
2021/07/10 04:36:31;;;;;;;14.88;7.57;;;;;;;;;;6226539;22;20170;-91
2021/07/10 04:39:36;;;;;;;13.40;7.50;;;;;;;;;;6225107;22;20283;-90
2021/07/10 04:42:42;;;;;;;12.23;8.05;;;;;;;;;;6227505;22;20171;-90
2021/07/10 04:45:48;;;;;;;19.52;8.93;;;;;;;;;;6224166;23;20295;-91
2021/07/10 04:48:52;;;;;;;15.50;9.02;;;;;;;;;;6222571;23;20605;-90
2021/07/10 04:51:58;;;;;;;18.42;9.18;;;;;;;;;;6225065;22;20171;-90
2021/07/10 04:55:03;;;;;;;13.52;9.02;;;;;;;;;;6224442;22;20171;-90
2021/07/10 04:58:09;;;;;;;17.13;8.93;;;;;;;;;;6224711;23;20246;-91
2021/07/10 05:01:15;;;;;;;15.00;9.32;;;;;;;;;;6225689;23;20164;-90
2021/07/10 05:04:19;;;;;;;17.05;9.82;;;;;;;;;;6226454;22;20207;-90
2021/07/10 05:07:25;;;;;;;23.58;9.65;;;;;;;;;;6225245;22;20203;-90
2021/07/10 05:10:29;;;;;;;15.13;9.00;;;;;;;;;;6226161;22;20833;-90
2021/07/10 05:13:36;;;;;;;15.63;8.90;;;;;;;;;;6225163;22;20619;-91
2021/07/10 05:16:41;;;;;;;13.82;8.23;;;;;;;;;;6225719;23;20170;-90
2021/07/10 05:19:47;;;;;;;16.70;10.13;;;;;;;;;;6226340;22;20171;-90
2021/07/10 05:22:52;;;;;;;12.27;8.35;;;;;;;;;;6226859;23;20167;-91
2021/07/10 05:25:57;;;;;;;10.75;7.35;;;;;;;;;;6230391;23;20206;-91
2021/07/10 05:29:04;;;;;;;13.93;7.93;;;;;;;;;;6229403;23;20222;-91
2021/07/10 05:32:09;;;;;;;15.77;7.88;;;;;;;;;;6228634;22;20167;-90
2021/07/10 05:35:16;;;;;;;14.13;8.48;;;;;;;;;;6228104;23;20757;-90
2021/07/10 05:38:21;;;;;;;17.70;8.30;;;;;;;;;;6227184;23;20291;-91
2021/07/10 05:41:26;;;;;;;14.77;8.65;;;;;;;;;;6228261;22;20167;-91
2021/07/10 05:44:32;;;;;;;12.27;8.30;;;;;;;;;;6227902;23;20258;-90
2021/07/10 05:47:37;;;;;;;12.68;7.60;;;;;;;;;;6226980;23;20171;-90
2021/07/10 05:50:43;;;;;;;15.10;8.10;;;;;;;;;;6227746;22;20210;-91
2021/07/10 05:53:48;;;;;;;12.75;8.20;;;;;;;;;;6226836;23;20175;-90
2021/07/10 05:56:53;;;;;;;12.48;7.78;;;;;;;;;;6225790;23;20159;-90
2021/07/10 06:00:00;;;;;;;13.07;8.48;;;;;;;;;;6225675;23;20170;-90
2021/07/10 06:03:05;;;;;;;17.35;10.13;;;;;;;;;;6227930;23;20389;-90
2021/07/10 06:06:11;;;;;;;13.02;7.75;;;;;;;;;;6226687;23;20194;-91
2021/07/10 06:09:17;;;;;;;13.32;7.80;;;;;;;;;;6229642;23;20178;-90
2021/07/10 06:12:22;;;;;;;14.85;8.40;;;;;;;;;;6227100;23;20606;-90
2021/07/10 06:15:28;;;;;;;14.07;7.68;;;;;;;;;;6228643;22;20232;-90
2021/07/10 06:18:34;;;;;;;10.70;7.40;;;;;;;;;;6227482;23;20506;-90
2021/07/10 06:21:39;;;;;;;11.75;8.02;;;;;;;;;;6227787;23;20538;-90
2021/07/10 06:25:15;;;;;;;10.20;7.20;;;;;;;;;;6231684;23;20175;-90
2021/07/10 10:10:29;;;;;;;2.83;1.10;;;;;;;;;;6186761;22;20386;-91
2021/07/10 10:13:34;;;;;;;1.73;0.75;;;;;;;;;;6226679;23;20706;-91
2021/07/10 10:16:45;;;;;;;1.30;0.90;;;;;;;;;;6227953;22;20162;-90
2021/07/10 10:19:50;;;;;;;1.92;1.10;;;;;;;;;;6228864;22;20171;-92
2021/07/10 10:22:55;;;;;;;3.85;1.10;;;;;;;;;;6229190;22;20178;-91
2021/07/10 10:26:04;;;;;;;2.28;1.20;;;;;;;;;;6226062;22;20193;-91
2021/07/10 10:29:09;;;;;;;3.15;1.20;;;;;;;;;;6226034;23;20210;-90
2021/07/10 10:32:14;;;;;;;1.20;0.90;;;;;;;;;;6228476;22;20199;-90
2021/07/10 10:35:21;;;;;;;1.90;1.10;;;;;;;;;;6231339;23;20159;-92
2021/07/10 10:38:26;;;;;;;1.65;1.00;;;;;;;;;;6229534;23;20210;-91
2021/07/10 10:41:33;;;;;;;2.55;1.05;;;;;;;;;;6228073;23;20181;-89
2021/07/10 10:44:40;;;;;;;1.00;0.85;;;;;;;;;;6227694;23;20173;-90
2021/07/10 10:47:49;;;;;;;2.15;1.13;;;;;;;;;;6229264;23;20163;-90
2021/07/10 10:50:54;;;;;;;1.98;1.20;;;;;;;;;;6228907;23;20167;-90
2021/07/10 10:54:18;;;;;;;1.50;1.00;;;;;;;;;;6228487;22;20178;-90
2021/07/10 10:57:35;;;;;;;1.55;1.15;;;;;;;;;;6226403;23;20231;-91
2021/07/10 11:00:42;;;;;;;2.83;1.05;;;;;;;;;;6227083;23;20234;-90
2021/07/10 11:03:47;;;;;;;2.38;1.23;;;;;;;;;;6228658;23;20170;-91
2021/07/10 11:06:52;;;;;;;1.00;0.90;;;;;;;;;;6228557;23;20202;-91
2021/07/10 11:13:37;;;;;;;1.60;1.27;;;;;;;;;;6226705;23;20190;-91
2021/07/10 11:17:05;;;;;;;1.73;1.10;;;;;;;;;;6227586;23;20167;-90
2021/07/10 11:20:10;;;;;;;1.50;1.00;;;;;;;;;;6228070;23;20282;-90
2021/07/10 11:23:27;;;;;;;3.28;1.00;;;;;;;;;;6243863;23;20174;-90
2021/07/10 11:26:33;;;;;;;1.25;0.95;;;;;;;;;;6243436;22;20607;-91
2021/07/10 11:29:41;;;;;;;1.38;1.17;;;;;;;;;;6227614;23;20220;-90
2021/07/10 11:32:46;;;;;;;3.47;1.20;;;;;;;;;;6227524;23;20166;-90
2021/07/10 11:35:52;;;;;;;1.17;0.95;;;;;;;;;;6228926;23;20166;-88
2021/07/10 11:38:57;;;;;;;1.40;1.10;;;;;;;;;;6224886;22;20162;-90
2021/07/10 11:42:23;;;;;;;2.05;1.00;;;;;;;;;;6227557;22;20178;-91
2021/07/10 11:45:30;;;;;;;0.93;0.90;;;;;;;;;;6224813;23;20630;-92
2021/07/10 11:48:35;;;;;;;0.98;0.80;;;;;;;;;;6226552;23;20167;-91
2021/07/10 11:51:41;;;;;;;1.50;0.80;;;;;;;;;;6225702;22;20178;-91
2021/07/10 11:54:47;;;;;;;1.05;0.82;;;;;;;;;;6227992;22;20167;-90
2021/07/10 11:57:52;;;;;;;0.98;0.65;;;;;;;;;;6225584;23;20245;-91
2021/07/10 12:01:03;;;;;;;1.10;0.77;;;;;;;;;;6226550;23;20174;-91
2021/07/10 12:04:11;;;;;;;2.88;0.52;;;;;;;;;;6227581;23;20358;-92
2021/07/10 12:07:20;;;;;;;1.00;0.90;;;;;;;;;;6228279;23;20273;-91
2021/07/10 12:10:25;;;;;;;1.40;0.90;;;;;;;;;;6227188;23;20165;-90
2021/07/10 12:13:37;;;;;;;2.17;0.77;;;;;;;;;;6226881;23;20257;-90
2021/07/10 12:16:43;;;;;;;1.02;0.85;;;;;;;;;;6225919;23;20167;-90
2021/07/10 12:19:49;;;;;;;1.15;0.80;;;;;;;;;;6225618;23;20290;-90
2021/07/10 12:22:56;;;;;;;0.90;0.90;;;;;;;;;;6227226;23;20166;-91
2021/07/10 12:26:03;;;;;;;1.13;0.80;;;;;;;;;;6226566;23;20171;-90
2021/07/10 12:29:09;;;;;;;3.75;0.98;;;;;;;;;;6225483;23;20278;-89
2021/07/10 12:32:17;;;;;;;1.45;1.00;;;;;;;;;;6229978;23;20229;-91
2021/07/10 12:35:23;;;;;;;3.25;0.90;;;;;;;;;;6228982;23;20212;-91
2021/07/10 12:38:28;;;;;;;4.10;1.10;;;;;;;;;;6232830;22;20163;-91
2021/07/10 12:41:38;;;;;;;1.42;0.80;;;;;;;;;;6229980;23;20218;-92
2021/07/10 12:44:44;;;;;;;3.20;1.10;;;;;;;;;;6232580;23;20198;-91
2021/07/10 12:47:59;;;;;;;1.80;1.00;;;;;;;;;;6233344;23;20187;-91
2021/07/10 12:51:06;;;;;;;2.22;1.15;;;;;;;;;;6231221;23;20171;-91
2021/07/10 12:54:35;;;;;;;1.17;0.98;;;;;;;;;;6231193;23;20174;-90
2021/07/10 12:57:40;;;;;;;1.80;1.10;;;;;;;;;;6230424;23;20479;-91
2021/07/10 13:00:46;;;;;;;1.83;1.10;;;;;;;;;;6233993;23;20175;-91
2021/07/10 13:03:53;;;;;;;2.17;1.00;;;;;;;;;;6231634;22;20214;-91
2021/07/10 13:07:00;;;;;;;1.92;0.95;;;;;;;;;;6230792;22;20174;-91
2021/07/10 13:10:05;;;;;;;1.42;1.00;;;;;;;;;;6229664;22;20166;-91
2021/07/10 13:13:15;;;;;;;3.20;1.23;;;;;;;;;;6231621;23;20170;-90
2021/07/10 13:16:20;;;;;;;15.02;1.38;;;;;;;;;;6233360;22;20185;-91
2021/07/10 13:19:38;;;;;;;2.15;1.27;;;;;;;;;;6232671;22;20521;-91
2021/07/10 13:22:46;;;;;;;1.48;1.10;;;;;;;;;;6233778;22;20241;-91
2021/07/10 13:25:52;;;;;;;1.73;1.20;;;;;;;;;;6247796;22;20167;-90
2021/07/10 13:29:02;;;;;;;1.52;1.10;;;;;;;;;;6231931;23;20154;-91
2021/07/10 13:32:13;;;;;;;2.65;0.93;;;;;;;;;;6231668;23;20241;-91
2021/07/10 13:35:24;;;;;;;1.65;1.35;;;;;;;;;;6230772;23;20179;-90
2021/07/10 13:56:18;;;;;;;3.05;1.38;;;;;;;;;;6211290;22;20332;-91
2021/07/10 13:59:24;;;;;;;2.33;1.40;;;;;;;;;;6229902;22;20155;-90
2021/07/10 14:02:29;;;;;;;2.97;1.50;;;;;;;;;;6230450;23;20190;-91
2021/07/10 14:05:35;;;;;;;2.65;2.15;;;;;;;;;;6229211;22;20162;-91
2021/07/10 14:08:50;;;;;;;2.40;1.35;;;;;;;;;;6229249;22;20158;-90
2021/07/10 14:11:56;;;;;;;3.97;1.50;;;;;;;;;;6228038;23;20493;-90
2021/07/10 14:15:02;;;;;;;2.15;1.35;;;;;;;;;;6229978;23;20625;-90
2021/07/10 14:18:09;;;;;;;1.90;1.10;;;;;;;;;;6227981;23;20193;-91
2021/07/10 14:21:13;;;;;;;3.42;1.27;;;;;;;;;;6229545;23;20282;-91
2021/07/10 14:24:18;;;;;;;1.95;1.30;;;;;;;;;;6230763;22;20175;-91
2021/07/10 14:27:25;;;;;;;3.63;1.38;;;;;;;;;;6228704;23;20194;-90
2021/07/10 14:30:34;;;;;;;3.38;1.55;;;;;;;;;;6228854;23;20619;-91
2021/07/10 14:51:39;;;;;;;2.33;1.70;;;;;;;;;;6208591;22;20222;-90
2021/07/10 14:54:44;;;;;;;3.05;1.63;;;;;;;;;;6228502;23;20175;-90
2021/07/10 14:57:50;;;;;;;1.95;1.48;;;;;;;;;;6226757;23;20171;-91
2021/07/10 15:00:56;;;;;;;3.20;1.50;;;;;;;;;;6228778;22;20175;-90
2021/07/10 15:04:01;;;;;;;1.98;1.40;;;;;;;;;;6230786;22;20159;-90
2021/07/10 15:07:11;;;;;;;4.15;1.90;;;;;;;;;;6227248;23;20202;-91
2021/07/10 15:10:18;;;;;;;2.28;1.30;;;;;;;;;;6228307;22;20159;-90
2021/07/10 15:13:23;;;;;;;1.58;1.40;;;;;;;;;;6227725;23;20169;-89
2021/07/10 15:16:29;;;;;;;2.40;1.40;;;;;;;;;;6229762;22;20155;-90
2021/07/10 15:19:34;;;;;;;2.08;1.48;;;;;;;;;;6229275;22;20269;-89
2021/07/10 15:22:41;;;;;;;3.10;1.77;;;;;;;;;;6228588;22;20619;-90
2021/07/10 15:25:46;;;;;;;2.35;1.40;;;;;;;;;;6232268;23;20182;-90
2021/07/10 15:28:52;;;;;;;1.90;1.30;;;;;;;;;;6231222;23;20198;-90
2021/07/10 15:31:57;;;;;;;2.42;2.10;;;;;;;;;;6230256;22;20236;-90
2021/07/10 15:35:02;;;;;;;1.50;1.30;;;;;;;;;;6230391;23;20232;-90
2021/07/10 15:38:12;;;;;;;2.05;1.20;;;;;;;;;;6248181;23;20195;-90
2021/07/10 15:41:17;;;;;;;1.23;1.10;;;;;;;;;;6228691;23;20146;-90
2021/07/10 15:44:22;;;;;;;1.30;1.10;;;;;;;;;;6230405;23;20198;-90
2021/07/10 15:47:28;;;;;;;1.55;1.05;;;;;;;;;;6229566;23;20190;-89
2021/07/10 15:50:39;;;;;;;1.92;1.05;;;;;;;;;;6227524;22;20186;-90
2021/07/10 15:53:45;;;;;;;4.70;2.38;;;;;;;;;;6230260;23;20167;-91
2021/07/10 15:56:50;;;;;;;2.83;1.30;;;;;;;;;;6226889;23;20183;-89
2021/07/10 15:59:55;;;;;;;1.65;1.10;;;;;;;;;;6229026;23;20155;-91
2021/07/10 16:03:01;;;;;;;2.45;1.42;;;;;;;;;;6228543;23;20163;-91
2021/07/10 16:06:06;;;;;;;1.75;0.90;;;;;;;;;;6230554;23;20147;-92
2021/07/10 16:09:12;;;;;;;1.30;1.10;;;;;;;;;;6230797;22;20223;-91
2021/07/10 16:12:17;;;;;;;1.65;1.15;;;;;;;;;;6230046;23;20211;-92
2021/07/10 16:15:23;;;;;;;4.60;1.20;;;;;;;;;;6230289;23;20232;-91
2021/07/10 16:18:32;;;;;;;3.55;1.25;;;;;;;;;;6231356;23;20198;-90
2021/07/10 16:21:37;;;;;;;1.33;1.20;;;;;;;;;;6248954;22;20167;-91
2021/07/10 16:24:44;;;;;;;3.13;1.23;;;;;;;;;;6227617;22;20175;-90
2021/07/10 16:27:49;;;;;;;1.80;1.13;;;;;;;;;;6227571;22;20222;-91
2021/07/10 16:30:54;;;;;;;1.92;1.23;;;;;;;;;;6227973;22;20182;-92
2021/07/10 16:33:59;;;;;;;14.90;3.60;;;;;;;;;;6228485;23;20588;-90
2021/07/10 16:37:05;;;;;;;3.63;1.73;;;;;;;;;;6230851;22;20226;-90
2021/07/10 16:40:13;;;;;;;2.22;1.58;;;;;;;;;;6228115;23;20257;-91
2021/07/10 16:43:18;;;;;;;1.65;1.40;;;;;;;;;;6247496;23;20218;-91
2021/07/10 16:46:25;;;;;;;2.58;1.60;;;;;;;;;;6229689;23;20167;-90
2021/07/10 16:49:30;;;;;;;4.10;1.73;;;;;;;;;;6231020;22;20298;-92
2021/07/10 16:52:35;;;;;;;1.67;1.15;;;;;;;;;;6230304;23;20203;-90
2021/07/10 16:55:43;;;;;;;1.63;1.20;;;;;;;;;;6231512;22;20217;-92
2021/07/10 16:58:49;;;;;;;2.28;1.48;;;;;;;;;;6230486;23;20204;-90
2021/07/10 17:01:54;;;;;;;2.42;1.73;;;;;;;;;;6229872;23;20174;-92
2021/07/10 17:05:00;;;;;;;1.98;1.38;;;;;;;;;;6232571;22;20158;-90
2021/07/10 17:08:07;;;;;;;2.53;1.50;;;;;;;;;;6249864;23;20618;-92
2021/07/10 17:11:17;;;;;;;1.85;1.50;;;;;;;;;;6231259;23;20171;-91
2021/07/10 17:14:22;;;;;;;2.65;1.60;;;;;;;;;;6228254;23;20166;-89
2021/07/10 17:17:30;;;;;;;2.05;1.30;;;;;;;;;;6230571;23;20175;-90
2021/07/10 17:20:37;;;;;;;1.67;1.30;;;;;;;;;;6248077;23;20160;-92
2021/07/10 17:23:50;;;;;;;9.52;2.75;;;;;;;;;;6231194;23;20167;-90
2021/07/10 17:26:57;;;;;;;4.93;1.80;;;;;;;;;;6233354;23;20171;-90
2021/07/10 17:30:03;;;;;;;3.72;1.90;;;;;;;;;;6232335;22;20171;-91
2021/07/10 17:33:08;;;;;;;15.15;2.83;;;;;;;;;;6232102;23;20231;-90
2021/07/10 17:36:14;;;;;;;3.45;2.47;;;;;;;;;;6233595;22;20171;-90
2021/07/10 17:39:19;;;;;;;6.00;2.60;;;;;;;;;;6231660;23;20171;-91
2021/07/10 17:42:26;;;;;;;2.75;1.73;;;;;;;;;;6230370;23;20166;-90
2021/07/10 17:45:31;;;;;;;3.45;1.40;;;;;;;;;;6230998;22;20234;-90
2021/07/10 17:48:36;;;;;;;2.00;1.23;;;;;;;;;;6248755;22;20194;-91
2021/07/10 17:51:42;;;;;;;3.25;1.95;;;;;;;;;;6230886;22;20175;-90
2021/07/10 17:54:47;;;;;;;4.57;1.65;;;;;;;;;;6231851;22;20179;-91
2021/07/10 17:57:56;;;;;;;2.92;1.40;;;;;;;;;;6230700;22;20244;-91
2021/07/10 18:01:02;;;;;;;6.40;2.10;;;;;;;;;;6229694;22;20171;-90
2021/07/10 18:04:08;;;;;;;8.05;1.55;;;;;;;;;;6231629;22;20272;-91
2021/07/10 18:07:15;;;;;;;5.32;1.58;;;;;;;;;;6228992;22;20170;-92
2021/07/10 18:10:20;;;;;;;20.05;12.70;;;;;;;;;;6229592;23;20179;-90
2021/07/10 18:13:27;;;;;;;6.03;1.95;;;;;;;;;;6228823;23;20626;-91
2021/07/10 18:16:33;;;;;;;2.85;1.38;;;;;;;;;;6231729;22;20199;-90
2021/07/10 18:19:38;;;;;;;2.33;1.52;;;;;;;;;;6231035;22;20235;-91
2021/07/10 18:22:44;;;;;;;2.45;1.40;;;;;;;;;;6231680;23;20174;-90
2021/07/10 18:25:51;;;;;;;2.28;1.40;;;;;;;;;;6231732;23;20179;-91
2021/07/10 18:28:59;;;;;;;1.65;1.40;;;;;;;;;;6231040;23;20194;-91
2021/07/10 18:32:05;;;;;;;7.88;1.70;;;;;;;;;;6232468;23;20231;-89
2021/07/10 18:35:10;;;;;;;4.47;1.90;;;;;;;;;;6234540;23;20167;-90
2021/07/10 18:38:15;;;;;;;4.53;1.83;;;;;;;;;;6232501;22;20191;-90
2021/07/10 18:41:20;;;;;;;2.42;1.40;;;;;;;;;;6232484;23;20244;-91
2021/07/10 18:44:27;;;;;;;4.60;1.50;;;;;;;;;;6234299;23;20199;-91
2021/07/10 18:47:32;;;;;;;3.13;1.52;;;;;;;;;;6231249;23;20178;-91
2021/07/10 18:50:37;;;;;;;4.22;1.50;;;;;;;;;;6233374;23;20171;-90
2021/07/10 18:53:43;;;;;;;3.28;1.88;;;;;;;;;;6232123;22;20654;-90
2021/07/10 18:56:49;;;;;;;2.60;1.67;;;;;;;;;;6229173;23;20238;-89
2021/07/10 18:59:56;;;;;;;5.35;1.35;;;;;;;;;;6230377;22;20151;-91
2021/07/10 19:03:01;;;;;;;2.55;1.35;;;;;;;;;;6229139;22;20171;-91
2021/07/10 19:06:06;;;;;;;3.08;1.35;;;;;;;;;;6231809;23;20175;-91
2021/07/10 19:09:11;;;;;;;1.80;1.50;;;;;;;;;;6231785;22;20225;-91
2021/07/10 19:12:17;;;;;;;3.97;1.50;;;;;;;;;;6233491;23;20151;-90
2021/07/10 19:15:25;;;;;;;5.95;1.95;;;;;;;;;;6232969;23;20171;-91
2021/07/10 19:18:31;;;;;;;4.60;1.42;;;;;;;;;;6232562;23;20183;-91
2021/07/10 19:21:36;;;;;;;1.90;1.67;;;;;;;;;;6231222;22;20192;-90
2021/07/10 19:24:41;;;;;;;6.97;1.92;;;;;;;;;;6230251;22;20262;-90
2021/07/10 19:27:48;;;;;;;2.75;1.48;;;;;;;;;;6229743;22;20171;-91
2021/07/10 19:30:55;;;;;;;3.67;1.50;;;;;;;;;;6232745;23;20163;-92
2021/07/10 19:34:02;;;;;;;5.78;2.30;;;;;;;;;;6233217;22;20154;-90
2021/07/10 19:37:07;;;;;;;1.92;1.40;;;;;;;;;;6234506;22;20215;-90
2021/07/10 19:40:14;;;;;;;2.80;1.90;;;;;;;;;;6233459;22;20175;-91
2021/07/10 19:43:19;;;;;;;4.28;1.80;;;;;;;;;;6233021;23;20171;-90
2021/07/10 19:46:26;;;;;;;4.10;1.50;;;;;;;;;;6232779;22;20223;-91
2021/07/10 19:49:32;;;;;;;6.03;1.75;;;;;;;;;;6231464;23;20199;-92
2021/07/10 19:52:37;;;;;;;2.85;1.70;;;;;;;;;;6228193;23;20544;-91
2021/07/10 19:55:43;;;;;;;3.55;1.60;;;;;;;;;;6230176;23;20206;-91
2021/07/10 19:58:49;;;;;;;4.65;2.20;;;;;;;;;;6231578;22;20236;-90
2021/07/10 20:01:56;;;;;;;4.72;2.20;;;;;;;;;;6231428;23;20626;-91
2021/07/10 20:05:01;;;;;;;6.47;3.22;;;;;;;;;;6230327;22;20198;-92
2021/07/10 20:08:08;;;;;;;6.65;2.10;;;;;;;;;;6231308;22;20174;-91
2021/07/10 20:11:13;;;;;;;6.88;2.47;;;;;;;;;;6229890;23;20171;-91
2021/07/10 20:14:18;;;;;;;6.47;3.28;;;;;;;;;;6229794;23;20170;-92
2021/07/10 20:17:25;;;;;;;8.10;3.28;;;;;;;;;;6231843;23;20234;-89
2021/07/10 20:20:30;;;;;;;5.65;2.28;;;;;;;;;;6230485;22;20657;-91
2021/07/10 20:23:36;;;;;;;5.80;2.35;;;;;;;;;;6231543;23;20637;-91
2021/07/10 20:26:41;;;;;;;5.65;2.00;;;;;;;;;;6232342;22;20175;-90
2021/07/10 20:29:45;;;;;;;4.22;2.38;;;;;;;;;;6230984;22;20298;-90
2021/07/10 20:32:52;;;;;;;7.63;2.45;;;;;;;;;;6230302;23;20218;-90
2021/07/10 20:35:57;;;;;;;5.22;2.20;;;;;;;;;;6230018;23;20240;-91
2021/07/10 20:39:03;;;;;;;4.60;2.47;;;;;;;;;;6229657;23;20664;-90
2021/07/10 20:42:09;;;;;;;4.38;2.42;;;;;;;;;;6229817;23;20175;-91
2021/07/10 20:45:13;;;;;;;7.35;2.30;;;;;;;;;;6229492;23;20191;-91
2021/07/10 20:48:20;;;;;;;5.03;2.15;;;;;;;;;;6230135;23;20290;-91
2021/07/10 20:51:25;;;;;;;6.28;2.80;;;;;;;;;;6230002;23;20186;-90
2021/07/10 20:54:32;;;;;;;5.00;2.40;;;;;;;;;;6232996;23;20155;-91
2021/07/10 20:57:38;;;;;;;4.10;2.10;;;;;;;;;;6230907;23;20265;-92
2021/07/10 21:00:43;;;;;;;3.33;1.67;;;;;;;;;;6230841;23;20175;-90
2021/07/10 21:03:49;;;;;;;7.15;1.95;;;;;;;;;;6233592;23;20199;-92
2021/07/10 21:06:55;;;;;;;3.72;2.08;;;;;;;;;;6229963;23;20175;-90
2021/07/10 21:10:04;;;;;;;5.60;2.40;;;;;;;;;;6230675;22;20219;-91
2021/07/10 21:13:09;;;;;;;6.18;2.75;;;;;;;;;;6231872;23;20174;-89
2021/07/10 21:16:18;;;;;;;5.50;2.50;;;;;;;;;;6232184;23;20183;-90
2021/07/10 21:19:24;;;;;;;7.82;2.40;;;;;;;;;;6231934;23;20174;-90
2021/07/10 21:22:30;;;;;;;5.13;2.33;;;;;;;;;;6229834;22;20222;-90
2021/07/10 21:25:37;;;;;;;3.85;2.38;;;;;;;;;;6230444;22;20203;-88
2021/07/10 21:28:42;;;;;;;4.57;2.58;;;;;;;;;;6230068;22;20809;-89
2021/07/10 21:31:49;;;;;;;5.05;2.47;;;;;;;;;;6229422;22;20235;-90
2021/07/10 21:34:56;;;;;;;58.55;32.90;;;;;;;;;;6231469;22;20157;-91
2021/07/10 21:38:01;;;;;;;5.32;2.40;;;;;;;;;;6231227;23;20167;-90
2021/07/10 21:41:06;;;;;;;6.10;2.28;;;;;;;;;;6233057;22;20159;-91
2021/07/10 21:44:12;;;;;;;7.97;2.42;;;;;;;;;;6232184;23;20171;-92
2021/07/10 21:47:20;;;;;;;6.20;2.00;;;;;;;;;;6231730;23;20218;-89
2021/07/10 21:50:27;;;;;;;6.15;2.15;;;;;;;;;;6231799;22;20194;-91
2021/07/10 21:53:32;;;;;;;5.38;2.28;;;;;;;;;;6231938;23;20176;-89
2021/07/10 21:56:37;;;;;;;4.55;2.15;;;;;;;;;;6231529;22;20151;-91
2021/07/10 21:59:42;;;;;;;4.20;2.83;;;;;;;;;;6231790;22;20250;-91
2021/07/10 22:03:26;;;;;;;4.20;2.50;;;;;;;;;;6230264;23;20172;-90
2021/07/10 22:06:33;;;;;;;8.68;2.67;;;;;;;;;;6230575;22;20166;-90
2021/07/10 22:09:39;;;;;;;6.30;2.53;;;;;;;;;;6231685;23;20178;-90
2021/07/10 22:12:44;;;;;;;5.35;2.35;;;;;;;;;;6232025;23;20190;-90
2021/07/10 22:15:49;;;;;;;5.95;2.20;;;;;;;;;;6233122;23;20184;-90
2021/07/10 22:18:54;;;;;;;3.88;2.17;;;;;;;;;;6248262;22;20171;-89
2021/07/10 22:22:01;;;;;;;5.13;2.58;;;;;;;;;;6231304;22;20233;-90
2021/07/10 22:25:07;;;;;;;4.78;2.67;;;;;;;;;;6231607;23;20215;-90
2021/07/10 22:28:13;;;;;;;5.53;2.33;;;;;;;;;;6230624;23;20175;-90
2021/07/10 22:31:20;;;;;;;7.68;2.63;;;;;;;;;;6248697;22;20187;-90
2021/07/10 22:34:25;;;;;;;4.25;1.92;;;;;;;;;;6231119;23;20681;-90
2021/07/10 22:37:32;;;;;;;8.45;2.60;;;;;;;;;;6249626;22;20190;-89
2021/07/10 22:40:37;;;;;;;4.93;2.72;;;;;;;;;;6247113;23;20171;-89
2021/07/10 22:43:43;;;;;;;4.72;2.60;;;;;;;;;;6230222;23;20175;-90
2021/07/10 22:46:47;;;;;;;5.68;2.42;;;;;;;;;;6228826;23;20506;-90
2021/07/10 22:49:53;;;;;;;3.47;2.25;;;;;;;;;;6228441;23;20195;-90
2021/07/10 22:52:59;;;;;;;4.72;2.45;;;;;;;;;;6228963;23;20151;-90